createdAt,value
2023-02-19T00:05:22.159Z,93.33
2023-02-19T00:10:44.883Z,92.83
2023-02-19T00:16:07.300Z,92.17
2023-02-19T00:21:31.766Z,91.44
2023-02-19T00:26:55.419Z,90.73
2023-02-19T00:32:17.740Z,90.25
2023-02-19T00:37:40.002Z,89.98
2023-02-19T00:43:02.216Z,90.00
2023-02-19T00:48:24.427Z,90.20
2023-02-19T00:53:46.967Z,90.38
2023-02-19T00:59:09.853Z,90.45
2023-02-19T01:04:32.225Z,90.49
2023-02-19T01:09:54.592Z,90.42
2023-02-19T01:15:17.138Z,90.31
2023-02-19T01:20:40.073Z,90.16
2023-02-19T01:26:02.426Z,90.01
2023-02-19T01:31:29.035Z,89.88
2023-02-19T01:36:52.341Z,89.67
2023-02-19T01:42:21.327Z,89.40
2023-02-19T01:47:43.599Z,89.01
2023-02-19T01:53:07.635Z,88.51
2023-02-19T01:58:31.027Z,88.14
2023-02-19T02:03:56.472Z,87.98
2023-02-19T02:09:37.086Z,87.94
2023-02-19T02:15:01.084Z,87.98
2023-02-19T02:20:47.397Z,88.27
2023-02-19T02:26:47.513Z,88.50
2023-02-19T02:32:26.224Z,88.84
2023-02-19T02:37:51.919Z,89.26
2023-02-19T02:43:15.732Z,89.57
2023-02-19T02:49:01.510Z,89.88
2023-02-19T02:54:57.590Z,90.20
2023-02-19T03:00:21.889Z,90.42
2023-02-19T03:05:52.402Z,90.72
2023-02-19T03:11:38.493Z,90.89
2023-02-19T03:17:23.712Z,90.99
2023-02-19T03:22:49.361Z,91.12
2023-02-19T03:28:17.682Z,91.25
2023-02-19T03:33:42.226Z,91.29
2023-02-19T03:39:13.963Z,91.50
2023-02-19T03:44:55.096Z,91.97
2023-02-19T03:50:36.870Z,92.56
2023-02-19T03:56:22.507Z,93.18
2023-02-19T04:01:55.332Z,93.81
2023-02-19T04:07:18.210Z,94.42
2023-02-19T04:12:44.147Z,94.85
2023-02-19T04:18:20.227Z,94.95
2023-02-19T04:23:47.282Z,94.91
2023-02-19T04:29:09.601Z,94.79
2023-02-19T04:34:31.911Z,94.71
2023-02-19T04:39:54.129Z,94.49
2023-02-19T04:45:16.618Z,94.03
2023-02-19T04:50:40.144Z,93.49
2023-02-19T04:56:02.498Z,93.00
2023-02-19T05:01:25.240Z,92.70
2023-02-19T05:06:48.089Z,92.52
2023-02-19T05:12:10.846Z,92.33
2023-02-19T05:17:33.028Z,92.11
2023-02-19T05:22:55.229Z,91.83
2023-02-19T05:28:20.467Z,91.65
2023-02-19T05:33:44.603Z,91.53
2023-02-19T05:39:09.714Z,91.55
2023-02-19T05:44:31.887Z,91.68
2023-02-19T05:49:54.167Z,91.93
2023-02-19T05:55:17.632Z,92.33
2023-02-19T06:00:40.254Z,92.71
2023-02-19T06:06:02.507Z,93.05
2023-02-19T06:11:25.081Z,93.37
2023-02-19T06:16:47.486Z,93.57
2023-02-19T06:22:09.672Z,93.59
2023-02-19T06:27:31.923Z,93.38
2023-02-19T06:32:54.674Z,92.94
2023-02-19T06:38:16.856Z,92.42
2023-02-19T06:43:39.410Z,91.99
2023-02-19T06:49:02.819Z,91.75
2023-02-19T06:54:26.560Z,91.62
2023-02-19T06:59:48.880Z,91.63
2023-02-19T07:05:11.335Z,91.71
2023-02-19T07:10:33.616Z,91.67
2023-02-19T07:15:55.835Z,91.60
2023-02-19T07:21:25.304Z,91.53
2023-02-19T07:26:50.237Z,91.38
2023-02-19T07:32:14.022Z,91.07
2023-02-19T07:37:37.854Z,90.74
2023-02-19T07:43:01.029Z,90.39
2023-02-19T07:48:26.532Z,89.99
2023-02-19T07:53:54.211Z,89.46
2023-02-19T07:59:20.255Z,88.96
2023-02-19T08:04:46.297Z,88.40
2023-02-19T08:10:28.903Z,87.77
2023-02-19T08:15:56.292Z,86.87
2023-02-19T08:21:21.340Z,85.73
2023-02-19T08:26:43.807Z,84.72
2023-02-19T08:32:06.209Z,83.69
2023-02-19T08:37:29.165Z,82.60
2023-02-19T08:42:52.756Z,81.53
2023-02-19T08:48:18.678Z,80.35
2023-02-19T08:53:45.862Z,79.00
2023-02-19T08:59:08.993Z,77.98
2023-02-19T09:04:32.135Z,77.01
2023-02-19T09:09:58.247Z,76.19
2023-02-19T09:15:21.006Z,75.04
2023-02-19T09:20:43.466Z,74.31
2023-02-19T09:26:14.426Z,73.99
2023-02-19T09:31:37.172Z,73.00
2023-02-19T09:37:02.627Z,71.88
2023-02-19T09:42:33.104Z,71.23
2023-02-19T09:47:55.671Z,70.72
2023-02-19T09:53:25.425Z,69.64
2023-02-19T09:59:09.862Z,68.96
2023-02-19T10:04:32.052Z,68.53
2023-02-19T10:10:06.726Z,67.19
2023-02-19T10:16:00.331Z,67.22
2023-02-19T10:21:25.248Z,68.88
2023-02-19T10:26:47.534Z,68.30
2023-02-19T10:37:58.579Z,61.96
2023-02-19T10:43:30.165Z,61.62
2023-02-19T10:48:59.731Z,57.52
2023-02-19T10:54:32.814Z,56.51
2023-02-19T11:00:09.608Z,59.36
2023-02-19T11:05:33.914Z,60.59
2023-02-19T11:11:01.028Z,58.89
2023-02-19T11:16:24.776Z,57.25
2023-02-19T11:21:48.808Z,55.12
2023-02-19T11:27:12.452Z,56.51
2023-02-19T11:32:49.060Z,56.85
2023-02-19T11:38:18.214Z,55.07
2023-02-19T11:44:09.411Z,53.97
2023-02-19T11:49:57.728Z,52.72
2023-02-19T11:55:56.221Z,49.53
2023-02-19T12:07:49.575Z,50.76
2023-02-19T12:14:04.318Z,50.09
2023-02-19T12:19:57.248Z,46.73
2023-02-19T12:25:34.532Z,44.79
2023-02-19T12:31:16.963Z,42.22
2023-02-19T12:37:09.620Z,42.06
2023-02-19T12:42:50.980Z,43.36
2023-02-19T12:48:48.862Z,42.35
2023-02-19T12:54:33.783Z,40.64
2023-02-19T13:00:07.835Z,41.43
2023-02-19T13:06:20.633Z,44.44
2023-02-19T13:11:50.344Z,44.35
2023-02-19T13:17:35.664Z,43.31
2023-02-19T13:23:33.175Z,42.68
2023-02-19T13:29:47.970Z,43.34
2023-02-19T13:36:03.412Z,42.62
2023-02-19T13:41:38.158Z,43.76
2023-02-19T13:47:05.018Z,42.58
2023-02-19T13:52:44.124Z,42.07
2023-02-19T13:58:24.769Z,41.84
2023-02-19T14:04:03.854Z,41.15
2023-02-19T14:09:47.084Z,41.35
2023-02-19T14:15:28.627Z,40.70
2023-02-19T14:20:57.109Z,39.00
2023-02-19T14:26:20.608Z,38.50
2023-02-19T14:31:50.658Z,38.84
2023-02-19T14:37:09.902Z,38.98
2023-02-19T14:42:35.246Z,39.80
2023-02-19T14:47:59.626Z,40.86
2023-02-19T14:53:25.223Z,41.64
2023-02-19T14:58:49.254Z,39.96
2023-02-19T15:04:13.260Z,39.39
2023-02-19T15:09:37.989Z,39.93
2023-02-19T15:15:02.882Z,40.30
2023-02-19T15:20:31.407Z,41.13
2023-02-19T15:25:55.761Z,41.07
2023-02-19T15:31:21.681Z,42.28
2023-02-19T15:36:47.370Z,42.75
2023-02-19T15:42:15.765Z,43.31
2023-02-19T15:48:03.473Z,43.97
2023-02-19T15:53:34.579Z,44.28
2023-02-19T15:59:10.507Z,45.77
2023-02-19T16:04:34.066Z,47.19
2023-02-19T16:09:59.589Z,48.54
2023-02-19T16:15:27.224Z,50.14
2023-02-19T16:20:51.162Z,50.97
2023-02-19T16:26:22.997Z,50.18
2023-02-19T16:31:45.234Z,50.01
2023-02-19T16:37:09.006Z,50.24
2023-02-19T16:42:31.701Z,51.00
2023-02-19T16:47:55.661Z,51.55
2023-02-19T16:53:26.683Z,51.70
2023-02-19T16:58:48.915Z,51.89
2023-02-19T17:04:19.663Z,52.08
2023-02-19T17:09:42.011Z,52.95
2023-02-19T17:15:04.400Z,54.14
2023-02-19T17:20:39.526Z,55.21
2023-02-19T17:26:01.908Z,55.64
2023-02-19T17:31:24.984Z,56.44
2023-02-19T17:36:48.408Z,57.01
2023-02-19T17:42:11.444Z,57.58
2023-02-19T17:47:33.935Z,58.01
2023-02-19T17:52:56.164Z,58.47
2023-02-19T17:58:18.958Z,58.76
2023-02-19T18:03:41.784Z,59.27
2023-02-19T18:09:08.883Z,59.99
2023-02-19T18:14:31.570Z,60.92
2023-02-19T18:19:55.454Z,61.66
2023-02-19T18:25:18.378Z,62.32
2023-02-19T18:30:41.480Z,63.15
2023-02-19T18:36:03.968Z,63.97
2023-02-19T18:41:28.065Z,64.64
2023-02-19T18:46:50.268Z,65.32
2023-02-19T18:52:13.360Z,65.89
2023-02-19T18:57:36.951Z,66.48
2023-02-19T19:03:05.353Z,67.21
2023-02-19T19:08:30.537Z,68.05
2023-02-19T19:13:52.635Z,68.67
2023-02-19T19:19:15.636Z,69.13
2023-02-19T19:24:37.989Z,69.62
2023-02-19T19:30:00.505Z,70.38
2023-02-19T19:35:24.396Z,70.93
2023-02-19T19:40:48.882Z,71.22
2023-02-19T19:46:15.238Z,71.27
2023-02-19T19:51:46.473Z,71.13
2023-02-19T19:57:11.526Z,70.72
2023-02-19T20:02:36.319Z,70.69
2023-02-19T20:08:00.667Z,70.86
2023-02-19T20:13:26.748Z,70.72
2023-02-19T20:18:49.669Z,70.32
2023-02-19T20:24:12.974Z,69.97
2023-02-19T20:29:37.364Z,69.72
2023-02-19T20:35:00.783Z,69.43
2023-02-19T20:40:27.063Z,69.42
2023-02-19T20:45:51.884Z,69.66
2023-02-19T20:51:16.204Z,69.89
2023-02-19T20:56:39.994Z,70.14
2023-02-19T21:02:05.619Z,70.39
2023-02-19T21:07:30.655Z,70.73
2023-02-19T21:12:56.735Z,71.05
2023-02-19T21:18:21.296Z,70.99
2023-02-19T21:23:45.858Z,71.05
2023-02-19T21:29:14.400Z,71.27
2023-02-19T21:34:41.378Z,71.04
2023-02-19T21:40:06.270Z,70.71
2023-02-19T21:45:30.751Z,70.58
2023-02-19T21:50:55.392Z,70.55
2023-02-19T21:56:21.657Z,70.56
2023-02-19T22:01:51.417Z,70.59
2023-02-19T22:07:15.615Z,70.68
2023-02-19T22:12:40.207Z,70.66
2023-02-19T22:18:05.279Z,70.59
2023-02-19T22:23:29.515Z,70.53
2023-02-19T22:28:53.783Z,70.38
2023-02-19T22:34:18.787Z,70.60
2023-02-19T22:39:44.106Z,70.87
2023-02-19T22:45:07.709Z,71.07
2023-02-19T22:50:38.147Z,71.30
2023-02-19T22:56:02.894Z,71.66
2023-02-19T23:01:28.421Z,71.91
2023-02-19T23:06:55.556Z,72.08
2023-02-19T23:12:24.586Z,72.32
2023-02-19T23:17:48.464Z,72.26
2023-02-19T23:23:11.464Z,72.15
2023-02-19T23:28:36.627Z,72.15
2023-02-19T23:34:00.911Z,72.45
2023-02-19T23:39:27.040Z,72.57
2023-02-19T23:44:53.289Z,72.58
2023-02-19T23:50:17.604Z,72.59
2023-02-19T23:55:41.456Z,72.61
